createdAt,value
2019-02-24T00:02:18.573Z,13.35
2019-02-24T00:04:49.941Z,19.37
2019-02-24T00:07:21.372Z,17.07
2019-02-24T00:09:53.046Z,13.68
2019-02-24T00:12:24.524Z,12.13
2019-02-24T00:14:55.925Z,14.75
2019-02-24T00:17:27.422Z,13.48
2019-02-24T00:19:58.821Z,14.90
2019-02-24T00:22:30.231Z,20.75
2019-02-24T00:25:01.606Z,14.98
2019-02-24T00:27:34.323Z,14.70
2019-02-24T00:30:07.362Z,15.18
2019-02-24T00:32:38.757Z,17.77
2019-02-24T00:35:10.235Z,16.42
2019-02-24T00:37:41.671Z,16.97
2019-02-24T00:40:13.108Z,18.60
2019-02-24T00:42:44.819Z,25.57
2019-02-24T00:45:16.234Z,16.25
2019-02-24T00:47:47.642Z,20.70
2019-02-24T00:50:19.987Z,15.05
2019-02-24T00:52:51.301Z,18.43
2019-02-24T00:55:22.780Z,20.37
2019-02-24T00:57:54.254Z,17.77
2019-02-24T01:00:25.655Z,25.55
2019-02-24T01:02:57.059Z,21.07
2019-02-24T01:05:28.465Z,18.63
2019-02-24T01:07:59.876Z,15.80
2019-02-24T01:10:31.292Z,18.75
2019-02-24T01:13:02.672Z,19.37
2019-02-24T01:15:34.047Z,26.65
2019-02-24T01:18:05.462Z,22.47
2019-02-24T01:20:36.747Z,18.10
2019-02-24T01:23:08.102Z,19.43
2019-02-24T01:25:39.507Z,21.17
2019-02-24T01:28:11.012Z,26.02
2019-02-24T01:30:42.525Z,18.40
2019-02-24T01:33:14.088Z,22.35
2019-02-24T01:35:45.604Z,25.00
2019-02-24T01:38:16.979Z,34.40
2019-02-24T01:40:48.346Z,20.20
2019-02-24T01:43:19.751Z,23.10
2019-02-24T01:45:51.122Z,21.20
2019-02-24T01:48:22.465Z,23.40
2019-02-24T01:50:53.971Z,21.63
2019-02-24T01:53:25.357Z,24.27
2019-02-24T01:55:56.793Z,23.97
2019-02-24T01:58:34.832Z,23.35
2019-02-24T02:01:01.212Z,25.57
2019-02-24T02:03:32.650Z,30.20
2019-02-24T02:06:04.057Z,33.87
2019-02-24T02:08:35.387Z,24.43
2019-02-24T02:11:06.699Z,28.77
2019-02-24T02:13:38.167Z,28.27
2019-02-24T02:16:09.567Z,22.02
2019-02-24T02:18:40.975Z,27.23
2019-02-24T02:21:12.352Z,25.33
2019-02-24T02:23:43.727Z,25.10
2019-02-24T02:26:15.152Z,25.77
2019-02-24T02:28:46.544Z,25.90
2019-02-24T02:31:18.026Z,23.07
2019-02-24T02:33:49.350Z,25.37
2019-02-24T02:36:20.824Z,25.00
2019-02-24T02:38:53.152Z,25.70
2019-02-24T02:41:24.550Z,27.43
2019-02-24T02:43:55.918Z,24.93
2019-02-24T02:46:27.558Z,25.17
2019-02-24T02:48:58.919Z,27.03
2019-02-24T02:51:30.371Z,28.93
2019-02-24T02:54:02.063Z,24.10
2019-02-24T02:56:33.436Z,21.15
2019-02-24T02:59:04.770Z,23.93
2019-02-24T03:01:36.196Z,21.13
2019-02-24T03:04:07.579Z,21.53
2019-02-24T03:06:59.059Z,33.00
2019-02-24T03:09:30.467Z,22.97
2019-02-24T03:12:01.998Z,23.53
2019-02-24T03:14:33.425Z,24.63
2019-02-24T03:17:04.730Z,19.23
2019-02-24T03:19:37.152Z,19.02
2019-02-24T03:22:08.541Z,20.00
2019-02-24T03:24:39.908Z,18.23
2019-02-24T03:27:11.306Z,22.77
2019-02-24T03:29:43.630Z,20.65
2019-02-24T03:32:15.267Z,17.97
2019-02-24T03:34:46.632Z,19.43
2019-02-24T03:37:17.986Z,16.73
2019-02-24T03:39:49.339Z,22.13
2019-02-24T03:42:20.899Z,17.83
2019-02-24T03:44:53.280Z,19.40
2019-02-24T03:47:25.705Z,19.90
2019-02-24T03:49:57.166Z,17.40
2019-02-24T03:52:28.538Z,16.60
2019-02-24T03:54:59.949Z,23.70
2019-02-24T03:57:31.333Z,20.17
2019-02-24T04:00:02.687Z,17.53
2019-02-24T04:02:34.105Z,21.83
2019-02-24T04:05:06.227Z,17.33
2019-02-24T04:07:37.592Z,20.20
2019-02-24T04:10:08.987Z,23.57
2019-02-24T04:12:41.542Z,21.48
2019-02-24T04:15:12.980Z,22.03
2019-02-24T04:17:44.724Z,24.77
2019-02-24T04:20:16.101Z,22.95
2019-02-24T04:22:47.505Z,33.37
2019-02-24T04:25:18.918Z,19.77
2019-02-24T04:27:50.247Z,23.87
2019-02-24T04:30:21.599Z,20.43
2019-02-24T04:32:53.285Z,27.20
2019-02-24T04:35:24.702Z,32.13
2019-02-24T04:37:56.106Z,29.53
2019-02-24T04:40:27.516Z,33.93
2019-02-24T04:42:58.922Z,39.77
2019-02-24T04:45:30.340Z,27.93
2019-02-24T04:48:01.752Z,29.07
2019-02-24T04:50:33.117Z,33.60
2019-02-24T04:53:05.536Z,34.90
2019-02-24T04:55:36.914Z,31.50
2019-02-24T04:58:08.333Z,38.97
2019-02-24T05:00:39.768Z,40.20
2019-02-24T05:03:11.130Z,39.50
2019-02-24T05:05:42.534Z,43.63
2019-02-24T05:08:13.928Z,46.98
2019-02-24T05:10:45.338Z,44.80
2019-02-24T05:13:16.764Z,56.37
2019-02-24T05:15:48.178Z,52.83
2019-02-24T05:18:19.538Z,51.37
2019-02-24T05:20:50.940Z,44.13
2019-02-24T05:23:22.324Z,46.13
2019-02-24T05:25:54.118Z,30.43
2019-02-24T05:28:25.397Z,27.52
2019-02-24T05:30:56.763Z,31.37
2019-02-24T05:33:29.182Z,23.85
2019-02-24T05:36:00.641Z,23.60
2019-02-24T05:38:31.941Z,23.20
2019-02-24T05:41:03.320Z,21.77
2019-02-24T05:43:34.666Z,22.15
2019-02-24T05:46:06.014Z,22.37
2019-02-24T05:48:37.323Z,21.27
2019-02-24T05:51:08.750Z,20.20
2019-02-24T05:53:40.160Z,16.97
2019-02-24T05:56:11.523Z,25.68
2019-02-24T05:58:42.941Z,15.25
2019-02-24T06:01:14.397Z,17.45
2019-02-24T06:03:45.759Z,20.97
2019-02-24T06:06:17.140Z,21.95
2019-02-24T06:08:48.545Z,15.20
2019-02-24T06:11:20.351Z,18.52
2019-02-24T06:13:52.262Z,16.42
2019-02-24T06:16:23.741Z,15.68
2019-02-24T06:18:55.132Z,16.35
2019-02-24T06:21:26.461Z,14.50
2019-02-24T06:23:57.873Z,20.57
2019-02-24T06:26:30.208Z,18.57
2019-02-24T06:29:02.384Z,25.12
2019-02-24T06:31:33.732Z,25.37
2019-02-24T06:34:05.711Z,30.35
2019-02-24T06:36:37.516Z,28.95
2019-02-24T06:39:08.749Z,30.50
2019-02-24T06:41:40.260Z,37.98
2019-02-24T06:44:11.631Z,48.70
2019-02-24T06:46:43.027Z,37.48
2019-02-24T06:49:14.468Z,30.90
2019-02-24T06:51:45.759Z,25.23
2019-02-24T06:54:17.260Z,30.95
2019-02-24T06:56:48.579Z,39.73
2019-02-24T06:59:19.915Z,38.80
2019-02-24T07:01:51.276Z,58.73
2019-02-24T07:04:22.810Z,54.03
2019-02-24T07:06:54.186Z,64.35
2019-02-24T07:09:25.568Z,70.40
2019-02-24T07:11:56.966Z,63.02
2019-02-24T07:14:29.599Z,64.97
2019-02-24T07:17:01.044Z,55.33
2019-02-24T07:19:32.452Z,66.35
2019-02-24T07:22:03.806Z,62.93
2019-02-24T07:24:35.344Z,43.80
2019-02-24T07:27:06.722Z,49.63
2019-02-24T07:29:37.990Z,59.50
2019-02-24T07:32:09.302Z,30.45
2019-02-24T07:34:42.252Z,28.47
2019-02-24T07:37:13.514Z,31.42
2019-02-24T07:39:44.864Z,22.42
2019-02-24T07:42:16.080Z,21.35
2019-02-24T07:44:47.710Z,21.33
2019-02-24T07:47:19.023Z,13.40
2019-02-24T07:49:51.626Z,14.83
2019-02-24T07:52:22.944Z,21.70
2019-02-24T07:54:54.243Z,17.30
2019-02-24T07:57:25.530Z,10.28
2019-02-24T07:59:56.777Z,18.87
2019-02-24T08:02:28.102Z,14.73
2019-02-24T08:04:59.451Z,14.87
2019-02-24T08:07:30.747Z,13.65
2019-02-24T08:10:02.123Z,8.83
2019-02-24T08:12:33.452Z,10.32
2019-02-24T08:15:06.330Z,6.97
2019-02-24T08:20:09.299Z,8.25
2019-02-24T08:22:42.205Z,9.63
2019-02-24T08:25:13.402Z,12.68
2019-02-24T08:27:44.768Z,14.07
2019-02-24T08:30:16.096Z,14.00
2019-02-24T08:32:47.324Z,11.40
2019-02-24T08:35:18.773Z,12.05
2019-02-24T08:37:50.087Z,12.73
2019-02-24T08:40:21.594Z,11.55
2019-02-24T08:42:52.928Z,8.80
2019-02-24T08:45:24.280Z,10.18
2019-02-24T08:47:55.677Z,10.93
2019-02-24T08:50:26.867Z,9.28
2019-02-24T08:52:58.569Z,5.75
2019-02-24T08:55:30.021Z,7.00
2019-02-24T08:58:04.646Z,12.45
2019-02-24T09:00:36.826Z,6.77
2019-02-24T09:03:08.140Z,5.40
2019-02-24T09:05:39.465Z,6.42
2019-02-24T09:08:10.708Z,12.30
2019-02-24T09:10:42.167Z,14.85
2019-02-24T09:13:13.531Z,11.65
2019-02-24T09:15:44.883Z,26.80
2019-02-24T09:18:16.178Z,15.08
2019-02-24T09:20:47.520Z,24.80
2019-02-24T09:23:18.794Z,15.98
2019-02-24T09:25:50.160Z,13.05
2019-02-24T09:28:21.479Z,12.98
2019-02-24T09:31:00.435Z,9.38
2019-02-24T09:33:26.103Z,9.30
2019-02-24T09:35:57.805Z,9.70
2019-02-24T09:38:29.008Z,10.20
2019-02-24T09:41:01.293Z,7.08
2019-02-24T09:43:32.621Z,8.00
2019-02-24T09:46:03.887Z,8.98
2019-02-24T09:48:35.230Z,11.18
2019-02-24T09:51:06.600Z,10.70
2019-02-24T09:53:37.823Z,9.98
2019-02-24T09:56:09.153Z,11.57
2019-02-24T09:58:40.421Z,10.63
2019-02-24T10:01:11.771Z,14.78
2019-02-24T10:03:43.042Z,11.78
2019-02-24T10:06:15.826Z,12.13
2019-02-24T10:08:49.656Z,12.98
2019-02-24T10:11:20.983Z,13.62
2019-02-24T10:13:52.203Z,7.87
2019-02-24T10:16:23.432Z,9.33
2019-02-24T10:18:54.855Z,11.08
2019-02-24T10:21:26.199Z,10.53
2019-02-24T10:23:57.495Z,10.70
2019-02-24T10:26:28.981Z,10.82
2019-02-24T10:29:00.298Z,7.90
2019-02-24T10:31:31.566Z,9.45
2019-02-24T10:34:02.764Z,11.75
2019-02-24T10:36:34.217Z,10.13
2019-02-24T10:39:05.798Z,10.20
2019-02-24T10:41:38.145Z,14.78
2019-02-24T10:44:09.481Z,8.20
2019-02-24T10:46:40.716Z,10.53
2019-02-24T10:49:12.137Z,10.00
2019-02-24T10:51:43.359Z,12.23
2019-02-24T10:54:14.776Z,10.00
2019-02-24T10:56:46.408Z,13.05
2019-02-24T10:59:17.728Z,12.63
2019-02-24T11:01:49.024Z,14.45
2019-02-24T11:04:22.790Z,12.43
2019-02-24T11:06:54.153Z,17.07
2019-02-24T11:09:25.490Z,16.93
2019-02-24T11:11:56.710Z,11.33
2019-02-24T11:14:28.124Z,8.58
2019-02-24T11:16:59.405Z,11.35
2019-02-24T11:19:30.818Z,18.70
2019-02-24T11:22:02.114Z,13.75
2019-02-24T11:24:33.378Z,18.20
2019-02-24T11:27:04.789Z,10.55
2019-02-24T11:29:36.053Z,7.15
2019-02-24T11:32:08.380Z,13.68
2019-02-24T11:34:39.663Z,14.03
2019-02-24T11:37:11.167Z,19.00
2019-02-24T11:39:42.481Z,17.95
2019-02-24T11:42:13.826Z,19.12
2019-02-24T11:44:44.975Z,14.43
2019-02-24T11:47:17.329Z,30.55
2019-02-24T11:49:51.434Z,14.90
2019-02-24T11:52:23.106Z,10.75
2019-02-24T11:54:54.385Z,11.53
2019-02-24T11:57:25.776Z,7.62
2019-02-24T11:59:57.155Z,15.60
2019-02-24T12:02:34.433Z,7.87
2019-02-24T12:07:31.921Z,18.05
2019-02-24T12:10:04.779Z,15.18
2019-02-24T12:12:38.433Z,14.15
2019-02-24T12:15:13.988Z,15.40
2019-02-24T12:17:45.339Z,12.35
2019-02-24T12:20:16.741Z,19.48
2019-02-24T12:22:48.070Z,14.20
2019-02-24T12:25:19.978Z,11.80
2019-02-24T12:27:51.359Z,11.78
2019-02-24T12:30:22.853Z,7.78
2019-02-24T12:32:54.208Z,6.80
2019-02-24T12:35:25.496Z,14.20
2019-02-24T12:37:56.889Z,7.70
2019-02-24T12:40:29.659Z,4.55
2019-02-24T12:43:00.865Z,6.00
2019-02-24T12:45:32.211Z,17.00
2019-02-24T12:48:03.677Z,9.60
2019-02-24T12:50:35.014Z,6.40
2019-02-24T12:53:06.509Z,7.78
2019-02-24T12:55:38.259Z,7.70
2019-02-24T12:58:09.825Z,13.03
2019-02-24T13:00:41.512Z,12.70
2019-02-24T13:03:12.896Z,10.55
2019-02-24T13:05:44.119Z,9.98
2019-02-24T13:08:15.403Z,9.33
2019-02-24T13:10:46.682Z,8.23
2019-02-24T13:13:18.067Z,6.80
2019-02-24T13:15:51.300Z,10.03
2019-02-24T13:20:52.820Z,11.90
2019-02-24T13:23:24.401Z,12.55
2019-02-24T13:25:55.721Z,10.65
2019-02-24T13:28:27.104Z,7.20
2019-02-24T13:30:58.331Z,22.48
2019-02-24T13:33:29.656Z,6.97
2019-02-24T13:36:01.078Z,4.50
2019-02-24T13:38:32.328Z,9.55
2019-02-24T13:41:03.629Z,8.65
2019-02-24T13:43:34.945Z,13.30
2019-02-24T13:46:06.227Z,10.72
2019-02-24T13:48:37.707Z,16.75
2019-02-24T13:51:09.046Z,10.63
2019-02-24T13:53:40.322Z,17.98
2019-02-24T13:56:13.272Z,15.35
2019-02-24T14:01:16.041Z,17.17
2019-02-24T14:03:47.515Z,16.12
2019-02-24T14:06:20.362Z,16.27
2019-02-24T14:08:51.995Z,18.90
2019-02-24T14:11:23.258Z,16.85
2019-02-24T14:13:54.549Z,23.12
2019-02-24T14:16:25.906Z,21.82
2019-02-24T14:18:57.225Z,23.52
2019-02-24T14:21:28.565Z,17.60
2019-02-24T14:23:59.945Z,13.60
2019-02-24T14:26:31.228Z,14.28
2019-02-24T14:29:08.604Z,17.70
2019-02-24T14:31:41.174Z,15.23
2019-02-24T14:34:12.470Z,16.70
2019-02-24T14:36:44.024Z,17.10
2019-02-24T14:39:15.600Z,15.58
2019-02-24T14:41:46.812Z,14.05
2019-02-24T14:44:20.705Z,11.78
2019-02-24T14:46:51.939Z,9.83
2019-02-24T14:49:24.393Z,14.25
2019-02-24T14:51:55.569Z,9.30
2019-02-24T14:54:26.990Z,11.65
2019-02-24T14:56:58.786Z,10.10
2019-02-24T14:59:30.029Z,11.15
2019-02-24T15:02:01.252Z,18.92
2019-02-24T15:04:32.564Z,16.30
2019-02-24T15:07:04.022Z,17.42
2019-02-24T15:09:35.320Z,25.65
2019-02-24T15:12:06.688Z,37.03
2019-02-24T15:14:37.964Z,26.48
2019-02-24T15:17:09.191Z,34.88
2019-02-24T15:19:40.683Z,41.45
2019-02-24T15:22:11.905Z,24.82
2019-02-24T15:24:43.445Z,19.37
2019-02-24T15:27:14.682Z,18.05
2019-02-24T15:29:45.911Z,15.68
2019-02-24T15:32:17.090Z,28.65
2019-02-24T15:34:48.459Z,22.85
2019-02-24T15:37:19.981Z,22.27
2019-02-24T15:39:51.301Z,31.42
2019-02-24T15:42:22.615Z,23.45
2019-02-24T15:44:53.942Z,33.67
2019-02-24T15:47:25.368Z,30.15
2019-02-24T15:49:56.725Z,37.13
2019-02-24T15:52:28.101Z,40.45
2019-02-24T15:54:59.605Z,42.98
2019-02-24T15:57:30.972Z,34.98
2019-02-24T16:00:02.443Z,30.17
2019-02-24T16:02:35.415Z,26.73
2019-02-24T16:05:08.765Z,27.95
2019-02-24T16:07:40.110Z,24.55
2019-02-24T16:10:14.466Z,26.48
2019-02-24T16:12:45.730Z,25.10
2019-02-24T16:15:22.352Z,28.70
2019-02-24T16:17:53.558Z,33.73
2019-02-24T16:20:27.388Z,26.65
2019-02-24T16:22:58.903Z,34.03
2019-02-24T16:25:30.279Z,35.23
2019-02-24T16:28:03.315Z,38.08
2019-02-24T16:30:34.648Z,38.10
2019-02-24T16:46:06.403Z,46.77
2019-02-24T16:48:39.494Z,36.35
2019-02-24T16:51:11.051Z,37.25
2019-02-24T16:53:42.456Z,36.77
2019-02-24T16:56:14.002Z,36.00
2019-02-24T16:58:45.414Z,33.50
2019-02-24T17:01:16.973Z,34.30
2019-02-24T17:03:48.421Z,34.73
2019-02-24T17:06:19.836Z,26.45
2019-02-24T17:08:52.233Z,26.33
2019-02-24T17:11:24.494Z,29.57
2019-02-24T17:13:56.051Z,28.95
2019-02-24T17:16:27.524Z,28.12
2019-02-24T17:19:00.282Z,27.42
2019-02-24T17:21:31.667Z,31.82
2019-02-24T17:24:02.954Z,22.40
2019-02-24T17:26:34.270Z,20.68
2019-02-24T17:29:05.528Z,24.60
2019-02-24T17:31:37.908Z,27.45
2019-02-24T17:34:09.191Z,26.87
2019-02-24T17:36:40.504Z,31.37
2019-02-24T17:39:11.935Z,36.17
2019-02-24T17:41:43.639Z,37.50
2019-02-24T17:44:15.116Z,51.33
2019-02-24T17:46:46.544Z,46.80
2019-02-24T17:49:18.161Z,48.45
2019-02-24T17:51:49.535Z,58.98
2019-02-24T17:54:22.123Z,39.45
2019-02-24T17:56:53.536Z,39.00
2019-02-24T17:59:25.052Z,37.13
2019-02-24T18:01:56.531Z,35.83
2019-02-24T18:04:27.933Z,33.78
2019-02-24T18:06:59.296Z,27.67
2019-02-24T18:09:30.643Z,19.20
2019-02-24T18:12:01.960Z,35.05
2019-02-24T18:14:33.266Z,22.80
2019-02-24T18:17:04.473Z,26.05
2019-02-24T18:19:35.839Z,23.12
2019-02-24T18:22:07.153Z,18.40
2019-02-24T18:24:38.455Z,25.60
2019-02-24T18:27:09.810Z,24.07
2019-02-24T18:29:41.091Z,24.60
2019-02-24T18:32:12.436Z,20.97
2019-02-24T18:34:44.621Z,20.27
2019-02-24T18:37:16.224Z,29.45
2019-02-24T18:39:47.565Z,26.50
2019-02-24T18:42:18.861Z,28.80
2019-02-24T18:44:50.359Z,31.87
2019-02-24T18:47:21.771Z,31.42
2019-02-24T18:49:53.164Z,27.37
2019-02-24T18:52:25.802Z,27.70
2019-02-24T18:55:00.334Z,29.00
2019-02-24T18:57:31.648Z,28.15
2019-02-24T19:00:02.941Z,27.15
2019-02-24T19:02:35.757Z,24.32
2019-02-24T19:05:08.285Z,22.32
2019-02-24T19:07:39.526Z,30.40
2019-02-24T19:10:22.124Z,27.62
2019-02-24T19:12:53.435Z,34.03
2019-02-24T19:15:25.218Z,33.65
2019-02-24T19:17:56.556Z,31.77
2019-02-24T19:20:27.832Z,34.13
2019-02-24T19:22:59.247Z,30.95
2019-02-24T19:25:30.658Z,40.25
2019-02-24T19:28:02.123Z,37.90
2019-02-24T19:30:33.574Z,30.82
2019-02-24T19:33:04.933Z,34.33
2019-02-24T19:35:36.386Z,34.83
2019-02-24T19:38:07.933Z,32.45
2019-02-24T19:40:39.320Z,33.30
2019-02-24T19:43:10.720Z,30.32
2019-02-24T19:45:42.141Z,26.33
2019-02-24T19:48:13.549Z,40.98
2019-02-24T19:50:44.987Z,31.52
2019-02-24T19:53:16.374Z,27.55
2019-02-24T19:55:47.736Z,29.52
2019-02-24T19:58:19.124Z,33.88
2019-02-24T20:00:55.216Z,31.33
2019-02-24T20:03:26.683Z,28.42
2019-02-24T20:05:58.341Z,31.25
2019-02-24T20:08:32.671Z,32.70
2019-02-24T20:11:04.062Z,30.97
2019-02-24T20:13:35.514Z,28.87
2019-02-24T20:16:06.889Z,36.03
2019-02-24T20:18:38.269Z,34.65
2019-02-24T20:21:11.202Z,38.60
2019-02-24T20:23:43.197Z,35.20
2019-02-24T20:26:15.579Z,39.33
2019-02-24T20:28:46.993Z,38.17
2019-02-24T20:31:18.441Z,28.12
2019-02-24T20:33:51.277Z,33.45
2019-02-24T20:36:24.103Z,31.48
2019-02-24T20:38:56.117Z,35.67
2019-02-24T20:41:27.519Z,41.70
2019-02-24T20:43:58.920Z,36.90
2019-02-24T20:46:30.318Z,33.02
2019-02-24T20:49:01.794Z,31.40
2019-02-24T20:51:33.231Z,33.23
2019-02-24T20:54:04.667Z,34.90
2019-02-24T20:56:36.080Z,34.63
2019-02-24T20:59:07.460Z,37.10
2019-02-24T21:01:38.900Z,36.60
2019-02-24T21:04:10.382Z,42.33
2019-02-24T21:06:41.826Z,38.50
2019-02-24T21:09:13.257Z,32.67
2019-02-24T21:11:44.703Z,38.38
2019-02-24T21:14:16.121Z,38.08
2019-02-24T21:16:47.440Z,46.58
2019-02-24T21:19:18.856Z,41.80
2019-02-24T21:21:50.285Z,37.53
2019-02-24T21:24:22.692Z,40.85
2019-02-24T21:26:54.091Z,35.70
2019-02-24T21:29:25.383Z,33.55
2019-02-24T21:31:56.775Z,35.63
2019-02-24T21:34:28.159Z,33.60
2019-02-24T21:36:59.545Z,33.90
2019-02-24T21:39:31.045Z,38.80
2019-02-24T21:42:02.551Z,32.90
2019-02-24T21:44:33.939Z,30.80
2019-02-24T21:47:05.344Z,28.73
2019-02-24T21:49:36.729Z,32.88
2019-02-24T21:52:08.110Z,34.53
2019-02-24T21:54:40.549Z,29.87
2019-02-24T21:57:11.907Z,31.75
2019-02-24T21:59:43.320Z,32.90
2019-02-24T22:02:14.725Z,27.45
2019-02-24T22:04:46.134Z,27.70
2019-02-24T22:07:17.511Z,29.10
2019-02-24T22:09:48.881Z,25.12
2019-02-24T22:12:20.298Z,27.05
2019-02-24T22:14:51.652Z,28.10
2019-02-24T22:17:23.075Z,31.75
2019-02-24T22:19:54.514Z,28.87
2019-02-24T22:22:26.031Z,25.95
2019-02-24T22:24:57.511Z,33.80
2019-02-24T22:27:28.914Z,36.17
2019-02-24T22:30:00.327Z,37.00
2019-02-24T22:32:31.698Z,33.53
2019-02-24T22:35:03.044Z,35.38
2019-02-24T22:37:34.418Z,27.15
2019-02-24T22:40:13.216Z,28.73
2019-02-24T22:42:45.103Z,26.15
2019-02-24T22:45:22.286Z,26.93
2019-02-24T22:47:53.613Z,20.25
2019-02-24T22:50:24.883Z,19.48
2019-02-24T22:52:56.132Z,22.80
2019-02-24T22:55:27.415Z,21.00
2019-02-24T22:57:58.685Z,21.10
2019-02-24T23:00:45.644Z,20.65
2019-02-24T23:03:18.414Z,20.15
2019-02-24T23:05:49.696Z,17.57
2019-02-24T23:08:20.998Z,18.57
2019-02-24T23:10:52.586Z,16.95
2019-02-24T23:13:23.784Z,16.82
2019-02-24T23:15:55.047Z,17.55
2019-02-24T23:18:26.310Z,15.25
2019-02-24T23:20:57.581Z,15.70
2019-02-24T23:23:28.948Z,17.40
2019-02-24T23:26:00.246Z,22.40
2019-02-24T23:28:31.522Z,14.05
2019-02-24T23:31:02.669Z,11.97
2019-02-24T23:33:33.997Z,19.30
2019-02-24T23:36:05.222Z,18.92
2019-02-24T23:38:36.502Z,15.98
2019-02-24T23:41:07.773Z,14.98
2019-02-24T23:43:39.161Z,15.88
2019-02-24T23:46:10.418Z,13.62
2019-02-24T23:48:42.224Z,14.63
2019-02-24T23:51:13.523Z,17.97
2019-02-24T23:53:44.751Z,16.52
2019-02-24T23:56:16.029Z,17.95
2019-02-24T23:58:47.324Z,16.37
